sensor_id;sensor_type;location;lat;lon;timestamp;temperature;humidity
39017;DHT22;24784;45.582;5.276;2023-03-03T00:00:48;3.10;99.90
39017;DHT22;24784;45.582;5.276;2023-03-03T00:03:17;3.10;99.90
39017;DHT22;24784;45.582;5.276;2023-03-03T00:05:44;3.20;99.90
39017;DHT22;24784;45.582;5.276;2023-03-03T00:08:10;3.20;99.90
39017;DHT22;24784;45.582;5.276;2023-03-03T00:10:36;3.10;99.90
39017;DHT22;24784;45.582;5.276;2023-03-03T00:13:02;3.10;99.90
39017;DHT22;24784;45.582;5.276;2023-03-03T00:15:29;3.10;99.90
39017;DHT22;24784;45.582;5.276;2023-03-03T00:17:55;3.10;99.90
39017;DHT22;24784;45.582;5.276;2023-03-03T00:20:37;3.10;99.90
39017;DHT22;24784;45.582;5.276;2023-03-03T00:23:29;3.10;99.90
39017;DHT22;24784;45.582;5.276;2023-03-03T00:25:56;3.10;99.90
39017;DHT22;24784;45.582;5.276;2023-03-03T00:28:26;3.10;99.90
39017;DHT22;24784;45.582;5.276;2023-03-03T00:30:54;3.10;99.90
39017;DHT22;24784;45.582;5.276;2023-03-03T00:33:31;3.00;99.90
39017;DHT22;24784;45.582;5.276;2023-03-03T00:36:35;3.00;99.90
39017;DHT22;24784;45.582;5.276;2023-03-03T00:39:37;2.90;99.90
39017;DHT22;24784;45.582;5.276;2023-03-03T00:42:14;2.80;99.90
39017;DHT22;24784;45.582;5.276;2023-03-03T00:44:43;2.90;99.90
39017;DHT22;24784;45.582;5.276;2023-03-03T00:49:42;2.90;99.90
39017;DHT22;24784;45.582;5.276;2023-03-03T00:52:15;2.90;99.90
39017;DHT22;24784;45.582;5.276;2023-03-03T00:54:41;2.90;99.90
39017;DHT22;24784;45.582;5.276;2023-03-03T00:57:07;3.00;99.90
39017;DHT22;24784;45.582;5.276;2023-03-03T00:59:32;2.90;99.90
39017;DHT22;24784;45.582;5.276;2023-03-03T01:01:58;2.90;99.90
39017;DHT22;24784;45.582;5.276;2023-03-03T01:04:24;2.80;99.90
39017;DHT22;24784;45.582;5.276;2023-03-03T01:06:49;2.90;99.90
39017;DHT22;24784;45.582;5.276;2023-03-03T01:09:15;3.00;99.90
39017;DHT22;24784;45.582;5.276;2023-03-03T01:11:41;2.90;99.90
39017;DHT22;24784;45.582;5.276;2023-03-03T01:14:07;2.90;99.90
39017;DHT22;24784;45.582;5.276;2023-03-03T01:16:33;2.80;99.90
39017;DHT22;24784;45.582;5.276;2023-03-03T01:18:59;2.70;99.90
39017;DHT22;24784;45.582;5.276;2023-03-03T01:21:25;2.60;99.90
39017;DHT22;24784;45.582;5.276;2023-03-03T01:23:50;2.70;99.90
39017;DHT22;24784;45.582;5.276;2023-03-03T01:26:16;2.60;99.90
39017;DHT22;24784;45.582;5.276;2023-03-03T01:28:42;2.60;99.90
39017;DHT22;24784;45.582;5.276;2023-03-03T01:31:08;2.60;99.90
39017;DHT22;24784;45.582;5.276;2023-03-03T01:33:35;2.60;99.90
39017;DHT22;24784;45.582;5.276;2023-03-03T01:36:01;2.60;99.90
39017;DHT22;24784;45.582;5.276;2023-03-03T01:38:27;2.70;99.90
39017;DHT22;24784;45.582;5.276;2023-03-03T01:40:55;2.60;99.90
39017;DHT22;24784;45.582;5.276;2023-03-03T01:43:21;2.60;99.90
39017;DHT22;24784;45.582;5.276;2023-03-03T01:48:30;2.60;99.90
39017;DHT22;24784;45.582;5.276;2023-03-03T01:51:01;2.50;99.90
39017;DHT22;24784;45.582;5.276;2023-03-03T01:53:38;2.50;99.90
39017;DHT22;24784;45.582;5.276;2023-03-03T01:56:07;2.60;99.90
39017;DHT22;24784;45.582;5.276;2023-03-03T01:58:42;2.50;99.90
39017;DHT22;24784;45.582;5.276;2023-03-03T02:01:29;2.50;99.90
39017;DHT22;24784;45.582;5.276;2023-03-03T02:03:56;2.50;99.90
39017;DHT22;24784;45.582;5.276;2023-03-03T02:06:26;2.50;99.90
39017;DHT22;24784;45.582;5.276;2023-03-03T02:08:58;2.50;99.90
39017;DHT22;24784;45.582;5.276;2023-03-03T02:11:24;2.40;99.90
39017;DHT22;24784;45.582;5.276;2023-03-03T02:13:51;2.40;99.90
39017;DHT22;24784;45.582;5.276;2023-03-03T02:16:17;2.40;99.90
39017;DHT22;24784;45.582;5.276;2023-03-03T02:18:43;2.50;99.90
39017;DHT22;24784;45.582;5.276;2023-03-03T02:21:11;2.50;99.90
39017;DHT22;24784;45.582;5.276;2023-03-03T02:26:13;2.30;99.90
39017;DHT22;24784;45.582;5.276;2023-03-03T02:28:40;2.40;99.90
39017;DHT22;24784;45.582;5.276;2023-03-03T02:31:11;2.30;99.90
39017;DHT22;24784;45.582;5.276;2023-03-03T02:33:42;2.20;99.90
39017;DHT22;24784;45.582;5.276;2023-03-03T02:36:15;2.30;99.90
39017;DHT22;24784;45.582;5.276;2023-03-03T02:44:26;2.40;99.90
39017;DHT22;24784;45.582;5.276;2023-03-03T02:46:53;2.30;99.90
39017;DHT22;24784;45.582;5.276;2023-03-03T02:49:25;2.40;99.90
39017;DHT22;24784;45.582;5.276;2023-03-03T02:51:52;2.30;99.90
39017;DHT22;24784;45.582;5.276;2023-03-03T02:54:20;2.30;99.90
39017;DHT22;24784;45.582;5.276;2023-03-03T02:56:46;2.30;99.90
39017;DHT22;24784;45.582;5.276;2023-03-03T02:59:12;2.30;99.90
39017;DHT22;24784;45.582;5.276;2023-03-03T03:01:38;2.30;99.90
39017;DHT22;24784;45.582;5.276;2023-03-03T03:04:11;2.40;99.90
39017;DHT22;24784;45.582;5.276;2023-03-03T03:06:37;2.20;99.90
39017;DHT22;24784;45.582;5.276;2023-03-03T03:09:04;2.20;99.90
39017;DHT22;24784;45.582;5.276;2023-03-03T03:11:30;2.20;99.90
39017;DHT22;24784;45.582;5.276;2023-03-03T03:13:56;2.10;99.90
39017;DHT22;24784;45.582;5.276;2023-03-03T03:16:22;1.90;99.90
39017;DHT22;24784;45.582;5.276;2023-03-03T03:18:48;1.90;99.90
39017;DHT22;24784;45.582;5.276;2023-03-03T03:21:15;1.80;99.90
39017;DHT22;24784;45.582;5.276;2023-03-03T03:23:41;1.70;99.90
39017;DHT22;24784;45.582;5.276;2023-03-03T03:26:07;1.50;99.90
39017;DHT22;24784;45.582;5.276;2023-03-03T03:28:34;1.30;99.90
39017;DHT22;24784;45.582;5.276;2023-03-03T03:31:00;1.30;99.90
39017;DHT22;24784;45.582;5.276;2023-03-03T03:33:26;1.30;99.90
39017;DHT22;24784;45.582;5.276;2023-03-03T03:35:55;1.30;99.90
39017;DHT22;24784;45.582;5.276;2023-03-03T03:38:22;1.30;99.90
39017;DHT22;24784;45.582;5.276;2023-03-03T03:40:48;1.10;99.90
39017;DHT22;24784;45.582;5.276;2023-03-03T03:43:14;1.00;99.90
39017;DHT22;24784;45.582;5.276;2023-03-03T03:45:43;1.00;99.90
39017;DHT22;24784;45.582;5.276;2023-03-03T03:48:09;0.80;99.90
39017;DHT22;24784;45.582;5.276;2023-03-03T03:50:35;0.80;99.90
39017;DHT22;24784;45.582;5.276;2023-03-03T03:53:02;0.80;99.90
39017;DHT22;24784;45.582;5.276;2023-03-03T03:55:28;0.90;99.90
39017;DHT22;24784;45.582;5.276;2023-03-03T03:57:55;0.90;99.90
39017;DHT22;24784;45.582;5.276;2023-03-03T04:00:21;0.80;99.90
39017;DHT22;24784;45.582;5.276;2023-03-03T04:02:47;1.00;99.90
39017;DHT22;24784;45.582;5.276;2023-03-03T04:05:13;1.00;99.90
39017;DHT22;24784;45.582;5.276;2023-03-03T04:07:39;0.70;99.90
39017;DHT22;24784;45.582;5.276;2023-03-03T04:10:05;0.80;99.90
39017;DHT22;24784;45.582;5.276;2023-03-03T04:12:31;0.70;99.90
39017;DHT22;24784;45.582;5.276;2023-03-03T04:15:08;0.80;99.90
39017;DHT22;24784;45.582;5.276;2023-03-03T04:17:34;0.80;99.90
39017;DHT22;24784;45.582;5.276;2023-03-03T04:20:00;0.60;99.90
39017;DHT22;24784;45.582;5.276;2023-03-03T04:22:28;0.50;99.90
39017;DHT22;24784;45.582;5.276;2023-03-03T04:25:01;0.60;99.90
39017;DHT22;24784;45.582;5.276;2023-03-03T04:27:31;0.60;99.90
39017;DHT22;24784;45.582;5.276;2023-03-03T04:29:56;0.70;99.90
39017;DHT22;24784;45.582;5.276;2023-03-03T04:32:22;0.70;99.90
39017;DHT22;24784;45.582;5.276;2023-03-03T04:34:48;0.70;99.90
39017;DHT22;24784;45.582;5.276;2023-03-03T04:37:13;0.60;99.90
39017;DHT22;24784;45.582;5.276;2023-03-03T04:39:39;0.50;99.90
39017;DHT22;24784;45.582;5.276;2023-03-03T04:42:05;0.50;99.90
39017;DHT22;24784;45.582;5.276;2023-03-03T04:44:31;0.60;99.90
39017;DHT22;24784;45.582;5.276;2023-03-03T04:46:56;0.60;99.90
39017;DHT22;24784;45.582;5.276;2023-03-03T04:49:22;0.50;99.90
39017;DHT22;24784;45.582;5.276;2023-03-03T04:51:48;0.60;99.90
39017;DHT22;24784;45.582;5.276;2023-03-03T04:54:14;0.60;99.90
39017;DHT22;24784;45.582;5.276;2023-03-03T04:56:40;0.50;99.90
39017;DHT22;24784;45.582;5.276;2023-03-03T04:59:05;0.50;99.90
39017;DHT22;24784;45.582;5.276;2023-03-03T05:01:31;0.50;99.90
39017;DHT22;24784;45.582;5.276;2023-03-03T05:03:57;0.40;99.90
39017;DHT22;24784;45.582;5.276;2023-03-03T05:06:22;0.30;99.90
39017;DHT22;24784;45.582;5.276;2023-03-03T05:08:48;0.40;99.90
39017;DHT22;24784;45.582;5.276;2023-03-03T05:11:14;0.40;99.90
39017;DHT22;24784;45.582;5.276;2023-03-03T05:13:40;0.40;99.90
39017;DHT22;24784;45.582;5.276;2023-03-03T05:16:06;0.20;99.90
39017;DHT22;24784;45.582;5.276;2023-03-03T05:18:32;0.10;99.90
39017;DHT22;24784;45.582;5.276;2023-03-03T05:20:58;0.20;99.90
39017;DHT22;24784;45.582;5.276;2023-03-03T05:23:23;0.20;99.90
39017;DHT22;24784;45.582;5.276;2023-03-03T05:25:49;0.30;99.90
39017;DHT22;24784;45.582;5.276;2023-03-03T05:28:16;0.30;99.90
39017;DHT22;24784;45.582;5.276;2023-03-03T05:30:41;0.20;99.90
39017;DHT22;24784;45.582;5.276;2023-03-03T05:33:09;0.20;99.90
39017;DHT22;24784;45.582;5.276;2023-03-03T05:35:37;0.10;99.90
39017;DHT22;24784;45.582;5.276;2023-03-03T05:38:02;0.20;99.90
39017;DHT22;24784;45.582;5.276;2023-03-03T05:40:28;0.20;99.90
39017;DHT22;24784;45.582;5.276;2023-03-03T05:42:54;0.10;99.90
39017;DHT22;24784;45.582;5.276;2023-03-03T05:45:20;0.20;99.90
39017;DHT22;24784;45.582;5.276;2023-03-03T05:47:52;0.10;99.90
39017;DHT22;24784;45.582;5.276;2023-03-03T05:50:19;0.20;99.90
39017;DHT22;24784;45.582;5.276;2023-03-03T05:52:51;0.20;99.90
39017;DHT22;24784;45.582;5.276;2023-03-03T05:55:18;0.10;99.90
39017;DHT22;24784;45.582;5.276;2023-03-03T05:57:44;0.10;99.90
39017;DHT22;24784;45.582;5.276;2023-03-03T06:00:11;0.10;99.90
39017;DHT22;24784;45.582;5.276;2023-03-03T06:02:37;0.10;99.90
39017;DHT22;24784;45.582;5.276;2023-03-03T06:05:03;0.00;99.90
39017;DHT22;24784;45.582;5.276;2023-03-03T06:07:28;0.10;99.90
39017;DHT22;24784;45.582;5.276;2023-03-03T06:09:54;0.00;99.90
39017;DHT22;24784;45.582;5.276;2023-03-03T06:12:20;0.00;99.90
39017;DHT22;24784;45.582;5.276;2023-03-03T06:14:46;0.20;99.90
39017;DHT22;24784;45.582;5.276;2023-03-03T06:17:12;0.10;99.90
39017;DHT22;24784;45.582;5.276;2023-03-03T06:19:38;0.00;99.90
39017;DHT22;24784;45.582;5.276;2023-03-03T06:22:06;0.10;99.90
39017;DHT22;24784;45.582;5.276;2023-03-03T06:24:32;0.00;99.90
39017;DHT22;24784;45.582;5.276;2023-03-03T06:26:59;0.00;99.90
39017;DHT22;24784;45.582;5.276;2023-03-03T06:29:25;0.00;99.90
39017;DHT22;24784;45.582;5.276;2023-03-03T06:31:51;0.00;99.90
39017;DHT22;24784;45.582;5.276;2023-03-03T06:34:17;0.00;99.90
39017;DHT22;24784;45.582;5.276;2023-03-03T06:36:43;0.00;99.90
39017;DHT22;24784;45.582;5.276;2023-03-03T06:39:09;0.10;99.90
39017;DHT22;24784;45.582;5.276;2023-03-03T06:41:35;0.00;99.90
39017;DHT22;24784;45.582;5.276;2023-03-03T06:44:00;0.00;99.90
39017;DHT22;24784;45.582;5.276;2023-03-03T06:46:26;0.10;99.90
39017;DHT22;24784;45.582;5.276;2023-03-03T06:48:52;0.20;99.90
39017;DHT22;24784;45.582;5.276;2023-03-03T06:51:35;0.20;99.90
39017;DHT22;24784;45.582;5.276;2023-03-03T06:54:30;0.10;99.90
39017;DHT22;24784;45.582;5.276;2023-03-03T06:57:00;0.10;99.90
39017;DHT22;24784;45.582;5.276;2023-03-03T06:59:28;0.20;99.90
39017;DHT22;24784;45.582;5.276;2023-03-03T07:01:54;0.20;99.90
39017;DHT22;24784;45.582;5.276;2023-03-03T07:04:31;0.20;99.90
39017;DHT22;24784;45.582;5.276;2023-03-03T07:07:10;0.10;99.90
39017;DHT22;24784;45.582;5.276;2023-03-03T07:09:38;0.00;99.90
39017;DHT22;24784;45.582;5.276;2023-03-03T07:12:12;0.20;99.90
39017;DHT22;24784;45.582;5.276;2023-03-03T07:14:46;0.20;99.90
39017;DHT22;24784;45.582;5.276;2023-03-03T07:17:18;0.20;99.90
39017;DHT22;24784;45.582;5.276;2023-03-03T07:19:44;0.20;99.90
39017;DHT22;24784;45.582;5.276;2023-03-03T07:22:22;0.20;99.90
39017;DHT22;24784;45.582;5.276;2023-03-03T07:24:53;0.20;99.90
39017;DHT22;24784;45.582;5.276;2023-03-03T07:29:54;0.10;99.90
39017;DHT22;24784;45.582;5.276;2023-03-03T07:32:39;0.30;99.90
39017;DHT22;24784;45.582;5.276;2023-03-03T07:35:40;0.20;99.90
39017;DHT22;24784;45.582;5.276;2023-03-03T07:38:37;0.10;99.90
39017;DHT22;24784;45.582;5.276;2023-03-03T07:41:14;0.30;99.90
39017;DHT22;24784;45.582;5.276;2023-03-03T07:43:47;0.30;99.90
39017;DHT22;24784;45.582;5.276;2023-03-03T07:46:29;0.40;99.90
39017;DHT22;24784;45.582;5.276;2023-03-03T07:48:59;0.40;99.90
39017;DHT22;24784;45.582;5.276;2023-03-03T07:51:43;0.50;99.90
39017;DHT22;24784;45.582;5.276;2023-03-03T07:54:29;0.70;99.90
39017;DHT22;24784;45.582;5.276;2023-03-03T07:59:44;0.90;99.90
39017;DHT22;24784;45.582;5.276;2023-03-03T08:02:38;0.90;99.90
39017;DHT22;24784;45.582;5.276;2023-03-03T08:05:26;0.90;99.90
39017;DHT22;24784;45.582;5.276;2023-03-03T08:07:53;0.80;99.90
39017;DHT22;24784;45.582;5.276;2023-03-03T08:10:34;0.80;99.90
39017;DHT22;24784;45.582;5.276;2023-03-03T08:13:07;0.90;99.90
39017;DHT22;24784;45.582;5.276;2023-03-03T08:15:36;1.10;99.90
39017;DHT22;24784;45.582;5.276;2023-03-03T08:18:07;1.10;99.90
39017;DHT22;24784;45.582;5.276;2023-03-03T08:20:51;1.20;99.90
39017;DHT22;24784;45.582;5.276;2023-03-03T08:23:18;1.30;99.90
39017;DHT22;24784;45.582;5.276;2023-03-03T08:25:45;1.50;99.90
39017;DHT22;24784;45.582;5.276;2023-03-03T08:28:11;1.70;99.90
39017;DHT22;24784;45.582;5.276;2023-03-03T08:30:38;1.80;99.90
39017;DHT22;24784;45.582;5.276;2023-03-03T08:33:04;2.00;99.90
39017;DHT22;24784;45.582;5.276;2023-03-03T08:35:30;2.10;99.90
39017;DHT22;24784;45.582;5.276;2023-03-03T08:37:55;2.20;99.90
39017;DHT22;24784;45.582;5.276;2023-03-03T08:40:21;2.30;99.90
39017;DHT22;24784;45.582;5.276;2023-03-03T08:42:47;2.50;99.90
39017;DHT22;24784;45.582;5.276;2023-03-03T08:45:13;2.70;99.90
39017;DHT22;24784;45.582;5.276;2023-03-03T08:47:39;2.70;99.90
39017;DHT22;24784;45.582;5.276;2023-03-03T08:50:05;2.70;99.90
39017;DHT22;24784;45.582;5.276;2023-03-03T08:52:31;2.90;99.90
39017;DHT22;24784;45.582;5.276;2023-03-03T08:54:58;3.00;99.90
39017;DHT22;24784;45.582;5.276;2023-03-03T08:57:24;3.30;99.90
39017;DHT22;24784;45.582;5.276;2023-03-03T08:59:50;3.40;99.90
39017;DHT22;24784;45.582;5.276;2023-03-03T09:02:15;3.40;99.90
39017;DHT22;24784;45.582;5.276;2023-03-03T09:04:42;3.50;99.90
39017;DHT22;24784;45.582;5.276;2023-03-03T09:07:08;3.60;99.90
39017;DHT22;24784;45.582;5.276;2023-03-03T09:09:33;3.70;99.90
39017;DHT22;24784;45.582;5.276;2023-03-03T09:12:14;3.80;99.90
39017;DHT22;24784;45.582;5.276;2023-03-03T09:14:40;3.90;99.90
39017;DHT22;24784;45.582;5.276;2023-03-03T09:17:22;4.00;99.90
39017;DHT22;24784;45.582;5.276;2023-03-03T09:19:49;4.30;99.90
39017;DHT22;24784;45.582;5.276;2023-03-03T09:22:24;4.30;99.90
39017;DHT22;24784;45.582;5.276;2023-03-03T09:24:53;4.40;99.90
39017;DHT22;24784;45.582;5.276;2023-03-03T09:27:30;4.50;99.90
39017;DHT22;24784;45.582;5.276;2023-03-03T09:30:11;4.80;99.90
39017;DHT22;24784;45.582;5.276;2023-03-03T09:32:40;5.20;99.90
39017;DHT22;24784;45.582;5.276;2023-03-03T09:35:36;5.50;99.90
39017;DHT22;24784;45.582;5.276;2023-03-03T09:38:24;5.80;99.90
39017;DHT22;24784;45.582;5.276;2023-03-03T09:52:14;6.90;99.60
39017;DHT22;24784;45.582;5.276;2023-03-03T10:02:45;7.90;97.80
39017;DHT22;24784;45.582;5.276;2023-03-03T10:05:29;8.20;97.40
39017;DHT22;24784;45.582;5.276;2023-03-03T10:08:14;8.20;96.00
39017;DHT22;24784;45.582;5.276;2023-03-03T10:13:36;8.30;96.50
39017;DHT22;24784;45.582;5.276;2023-03-03T10:21:45;8.70;95.50
39017;DHT22;24784;45.582;5.276;2023-03-03T10:27:13;9.00;95.20
39017;DHT22;24784;45.582;5.276;2023-03-03T10:32:37;9.30;94.30
39017;DHT22;24784;45.582;5.276;2023-03-03T10:51:06;8.60;94.80
39017;DHT22;24784;45.582;5.276;2023-03-03T10:53:58;8.70;94.50
39017;DHT22;24784;45.582;5.276;2023-03-03T10:59:14;8.00;94.90
39017;DHT22;24784;45.582;5.276;2023-03-03T11:01:58;7.90;94.80
39017;DHT22;24784;45.582;5.276;2023-03-03T11:04:44;8.10;94.90
39017;DHT22;24784;45.582;5.276;2023-03-03T11:07:45;8.00;94.90
39017;DHT22;24784;45.582;5.276;2023-03-03T11:13:00;7.80;94.90
39017;DHT22;24784;45.582;5.276;2023-03-03T11:15:44;7.80;94.70
39017;DHT22;24784;45.582;5.276;2023-03-03T11:27:11;8.50;95.40
39017;DHT22;24784;45.582;5.276;2023-03-03T11:30:05;8.30;94.50
39017;DHT22;24784;45.582;5.276;2023-03-03T11:41:47;8.50;94.60
39017;DHT22;24784;45.582;5.276;2023-03-03T11:45:11;8.40;94.10
39017;DHT22;24784;45.582;5.276;2023-03-03T11:47:40;8.20;94.40
39017;DHT22;24784;45.582;5.276;2023-03-03T11:50:34;8.10;93.80
39017;DHT22;24784;45.582;5.276;2023-03-03T11:53:23;7.70;94.50
39017;DHT22;24784;45.582;5.276;2023-03-03T11:55:56;7.60;94.80
39017;DHT22;24784;45.582;5.276;2023-03-03T11:58:30;7.70;94.60
39017;DHT22;24784;45.582;5.276;2023-03-03T12:01:19;7.80;94.40
39017;DHT22;24784;45.582;5.276;2023-03-03T12:11:54;7.60;94.60
39017;DHT22;24784;45.582;5.276;2023-03-03T12:14:42;7.90;94.70
39017;DHT22;24784;45.582;5.276;2023-03-03T12:20:42;8.00;94.40
39017;DHT22;24784;45.582;5.276;2023-03-03T12:23:01;7.70;94.30
39017;DHT22;24784;45.582;5.276;2023-03-03T12:26:02;7.70;94.30
39017;DHT22;24784;45.582;5.276;2023-03-03T12:31:08;7.80;94.80
39017;DHT22;24784;45.582;5.276;2023-03-03T12:39:05;7.80;94.20
39017;DHT22;24784;45.582;5.276;2023-03-03T12:44:35;7.80;94.10
39017;DHT22;24784;45.582;5.276;2023-03-03T12:47:14;7.90;94.20
39017;DHT22;24784;45.582;5.276;2023-03-03T12:56:04;7.80;94.00
39017;DHT22;24784;45.582;5.276;2023-03-03T13:01:32;8.00;94.40
39017;DHT22;24784;45.582;5.276;2023-03-03T13:04:27;8.00;94.00
39017;DHT22;24784;45.582;5.276;2023-03-03T13:17:25;7.90;93.90
39017;DHT22;24784;45.582;5.276;2023-03-03T13:20:01;8.10;93.70
39017;DHT22;24784;45.582;5.276;2023-03-03T13:22:54;8.10;93.90
39017;DHT22;24784;45.582;5.276;2023-03-03T13:27:59;8.20;93.50
39017;DHT22;24784;45.582;5.276;2023-03-03T13:30:30;8.10;93.10
39017;DHT22;24784;45.582;5.276;2023-03-03T13:34:01;7.90;93.00
39017;DHT22;24784;45.582;5.276;2023-03-03T13:35:59;7.80;93.20
39017;DHT22;24784;45.582;5.276;2023-03-03T13:38:53;7.80;93.60
39017;DHT22;24784;45.582;5.276;2023-03-03T13:44:24;8.10;93.50
39017;DHT22;24784;45.582;5.276;2023-03-03T13:49:42;8.20;93.40
39017;DHT22;24784;45.582;5.276;2023-03-03T13:52:23;8.20;92.80
39017;DHT22;24784;45.582;5.276;2023-03-03T13:57:38;8.40;93.30
39017;DHT22;24784;45.582;5.276;2023-03-03T14:00:20;8.40;92.70
39017;DHT22;24784;45.582;5.276;2023-03-03T14:05:45;8.40;93.10
39017;DHT22;24784;45.582;5.276;2023-03-03T14:11:06;8.70;92.10
39017;DHT22;24784;45.582;5.276;2023-03-03T14:16:15;8.90;92.20
39017;DHT22;24784;45.582;5.276;2023-03-03T14:18:54;8.80;91.90
39017;DHT22;24784;45.582;5.276;2023-03-03T14:21:37;8.90;92.20
39017;DHT22;24784;45.582;5.276;2023-03-03T14:24:16;8.90;91.90
39017;DHT22;24784;45.582;5.276;2023-03-03T14:31:58;8.40;91.90
39017;DHT22;24784;45.582;5.276;2023-03-03T14:34:39;8.60;92.40
39017;DHT22;24784;45.582;5.276;2023-03-03T14:37:28;8.50;92.20
39017;DHT22;24784;45.582;5.276;2023-03-03T14:42:55;8.30;92.80
39017;DHT22;24784;45.582;5.276;2023-03-03T14:45:35;8.40;92.40
39017;DHT22;24784;45.582;5.276;2023-03-03T14:48:25;8.30;92.40
39017;DHT22;24784;45.582;5.276;2023-03-03T14:51:16;8.30;92.70
39017;DHT22;24784;45.582;5.276;2023-03-03T14:53:46;8.30;92.70
39017;DHT22;24784;45.582;5.276;2023-03-03T15:01:39;7.90;92.90
39017;DHT22;24784;45.582;5.276;2023-03-03T15:04:30;8.00;93.00
39017;DHT22;24784;45.582;5.276;2023-03-03T15:06:56;8.00;93.10
39017;DHT22;24784;45.582;5.276;2023-03-03T15:09:38;7.80;92.90
39017;DHT22;24784;45.582;5.276;2023-03-03T15:12:36;7.80;93.00
39017;DHT22;24784;45.582;5.276;2023-03-03T15:25:51;7.60;93.10
39017;DHT22;24784;45.582;5.276;2023-03-03T15:37:17;7.50;93.40
39017;DHT22;24784;45.582;5.276;2023-03-03T15:45:13;7.40;93.40
39017;DHT22;24784;45.582;5.276;2023-03-03T15:56:26;7.20;93.50
39017;DHT22;24784;45.582;5.276;2023-03-03T15:59:06;7.20;93.70
39017;DHT22;24784;45.582;5.276;2023-03-03T16:04:32;7.10;93.70
39017;DHT22;24784;45.582;5.276;2023-03-03T16:07:29;7.00;94.00
39017;DHT22;24784;45.582;5.276;2023-03-03T16:15:56;7.00;94.00
39017;DHT22;24784;45.582;5.276;2023-03-03T16:26:45;7.00;94.20
39017;DHT22;24784;45.582;5.276;2023-03-03T16:32:02;6.90;94.20
39017;DHT22;24784;45.582;5.276;2023-03-03T16:34:32;6.90;94.30
39017;DHT22;24784;45.582;5.276;2023-03-03T16:40:17;6.80;94.30
39017;DHT22;24784;45.582;5.276;2023-03-03T16:42:47;6.90;94.50
39017;DHT22;24784;45.582;5.276;2023-03-03T16:51:09;6.70;94.20
39017;DHT22;24784;45.582;5.276;2023-03-03T16:56:40;6.70;94.60
39017;DHT22;24784;45.582;5.276;2023-03-03T16:59:23;6.60;94.50
39017;DHT22;24784;45.582;5.276;2023-03-03T17:04:45;6.60;94.50
39017;DHT22;24784;45.582;5.276;2023-03-03T17:12:27;6.60;94.70
39017;DHT22;24784;45.582;5.276;2023-03-03T17:24:17;6.50;94.70
39017;DHT22;24784;45.582;5.276;2023-03-03T17:45:23;6.30;95.30
39017;DHT22;24784;45.582;5.276;2023-03-03T17:56:15;6.20;95.20
39017;DHT22;24784;45.582;5.276;2023-03-03T18:01:26;6.20;95.40
39017;DHT22;24784;45.582;5.276;2023-03-03T18:06:57;6.20;95.30
39017;DHT22;24784;45.582;5.276;2023-03-03T18:15:23;6.10;95.60
39017;DHT22;24784;45.582;5.276;2023-03-03T18:20:55;6.10;95.70
39017;DHT22;24784;45.582;5.276;2023-03-03T18:26:01;6.00;96.20
39017;DHT22;24784;45.582;5.276;2023-03-03T18:31:30;6.00;96.60
39017;DHT22;24784;45.582;5.276;2023-03-03T18:34:08;5.90;97.00
39017;DHT22;24784;45.582;5.276;2023-03-03T18:36:50;6.00;97.20
39017;DHT22;24784;45.582;5.276;2023-03-03T18:44:55;5.60;97.50
39017;DHT22;24784;45.582;5.276;2023-03-03T18:48:14;5.50;97.70
39017;DHT22;24784;45.582;5.276;2023-03-03T18:50:39;5.40;97.90
39017;DHT22;24784;45.582;5.276;2023-03-03T18:53:27;5.30;97.90
39017;DHT22;24784;45.582;5.276;2023-03-03T18:55:55;5.40;98.00
39017;DHT22;24784;45.582;5.276;2023-03-03T19:04:10;5.20;97.90
39017;DHT22;24784;45.582;5.276;2023-03-03T19:09:11;5.10;98.30
39017;DHT22;24784;45.582;5.276;2023-03-03T19:11:49;5.10;98.40
39017;DHT22;24784;45.582;5.276;2023-03-03T19:20:14;4.90;98.90
39017;DHT22;24784;45.582;5.276;2023-03-03T19:23:01;4.90;98.80
39017;DHT22;24784;45.582;5.276;2023-03-03T19:25:29;4.90;98.90
39017;DHT22;24784;45.582;5.276;2023-03-03T19:30:49;4.70;99.00
39017;DHT22;24784;45.582;5.276;2023-03-03T19:33:49;4.70;99.00
39017;DHT22;24784;45.582;5.276;2023-03-03T19:42:10;4.70;99.10
39017;DHT22;24784;45.582;5.276;2023-03-03T19:44:47;4.80;99.30
39017;DHT22;24784;45.582;5.276;2023-03-03T19:47:38;4.70;99.60
39017;DHT22;24784;45.582;5.276;2023-03-03T19:50:16;4.80;99.70
39017;DHT22;24784;45.582;5.276;2023-03-03T19:53:13;4.80;99.70
39017;DHT22;24784;45.582;5.276;2023-03-03T20:01:17;4.80;99.10
39017;DHT22;24784;45.582;5.276;2023-03-03T20:04:08;4.80;99.20
39017;DHT22;24784;45.582;5.276;2023-03-03T20:07:03;4.90;99.00
39017;DHT22;24784;45.582;5.276;2023-03-03T20:12:21;4.90;99.30
39017;DHT22;24784;45.582;5.276;2023-03-03T20:17:50;4.90;99.50
39017;DHT22;24784;45.582;5.276;2023-03-03T20:23:29;4.90;99.40
39017;DHT22;24784;45.582;5.276;2023-03-03T20:34:07;5.00;99.90
39017;DHT22;24784;45.582;5.276;2023-03-03T20:53:48;5.20;99.50
39017;DHT22;24784;45.582;5.276;2023-03-03T20:56:41;5.20;99.60
39017;DHT22;24784;45.582;5.276;2023-03-03T20:59:31;5.30;99.20
39017;DHT22;24784;45.582;5.276;2023-03-03T21:07:33;5.20;99.30
39017;DHT22;24784;45.582;5.276;2023-03-03T21:10:14;5.30;99.40
39017;DHT22;24784;45.582;5.276;2023-03-03T21:12:41;5.30;99.90
39017;DHT22;24784;45.582;5.276;2023-03-03T21:15:30;5.30;99.80
39017;DHT22;24784;45.582;5.276;2023-03-03T21:17:57;5.30;99.90
39017;DHT22;24784;45.582;5.276;2023-03-03T21:22:53;5.20;99.90
39017;DHT22;24784;45.582;5.276;2023-03-03T21:31:08;5.20;99.90
39017;DHT22;24784;45.582;5.276;2023-03-03T21:33:54;5.20;99.90
39017;DHT22;24784;45.582;5.276;2023-03-03T21:38:58;5.10;99.90
39017;DHT22;24784;45.582;5.276;2023-03-03T21:41:26;5.20;99.90
39017;DHT22;24784;45.582;5.276;2023-03-03T21:43:53;5.20;99.90
39017;DHT22;24784;45.582;5.276;2023-03-03T21:46:22;5.20;99.90
39017;DHT22;24784;45.582;5.276;2023-03-03T21:48:49;5.10;99.90
39017;DHT22;24784;45.582;5.276;2023-03-03T21:51:15;5.00;99.90
39017;DHT22;24784;45.582;5.276;2023-03-03T21:53:42;5.10;99.90
39017;DHT22;24784;45.582;5.276;2023-03-03T21:56:10;5.00;99.90
39017;DHT22;24784;45.582;5.276;2023-03-03T21:58:38;4.90;99.90
39017;DHT22;24784;45.582;5.276;2023-03-03T22:01:05;4.90;99.90
39017;DHT22;24784;45.582;5.276;2023-03-03T22:03:32;5.00;99.90
39017;DHT22;24784;45.582;5.276;2023-03-03T22:05:57;5.10;99.90
39017;DHT22;24784;45.582;5.276;2023-03-03T22:08:23;5.10;99.90
39017;DHT22;24784;45.582;5.276;2023-03-03T22:10:50;5.00;99.90
39017;DHT22;24784;45.582;5.276;2023-03-03T22:13:18;5.00;99.90
39017;DHT22;24784;45.582;5.276;2023-03-03T22:15:46;4.90;99.90
39017;DHT22;24784;45.582;5.276;2023-03-03T22:18:12;4.90;99.90
39017;DHT22;24784;45.582;5.276;2023-03-03T22:20:38;4.90;99.90
39017;DHT22;24784;45.582;5.276;2023-03-03T22:23:04;5.00;99.90
39017;DHT22;24784;45.582;5.276;2023-03-03T22:25:30;5.00;99.90
39017;DHT22;24784;45.582;5.276;2023-03-03T22:27:55;5.00;99.90
39017;DHT22;24784;45.582;5.276;2023-03-03T22:30:21;5.00;99.90
39017;DHT22;24784;45.582;5.276;2023-03-03T22:32:47;5.00;99.90
39017;DHT22;24784;45.582;5.276;2023-03-03T22:35:16;5.00;99.90
39017;DHT22;24784;45.582;5.276;2023-03-03T22:37:43;4.90;99.90